The Hangar Logo

METARs in Plain English
Latest METAR information for EGVN - BRIZE NORTON

EGVN 251220Z 24007KT 9999 BKN020 BKN025 BKN050 13/08 Q1018 WHT TEMPO FEW020 BLU

In plain english is....

This is a METAR report for EGVN - BRIZE NORTON .
The report was made 18 minutes ago, at 12:20 UTC.
The wind was blowing at a speed of 7 knots (8.1 miles per hour, 3.6 metres per second) from the West/Southwest (240°).
The visibility was greater than 6.2 miles (greater than 10 kilometres).
There were broken clouds at a height of 2000 feet (610 metres), broken clouds at a height of 2500 feet (762 metres) and broken clouds at a height of 5000 feet (1524 metres).
The temperature was 13°C (55°F), a dew point of 8°C (46°F) and a relative humidity of 71.6%.
The altimeter setting (airfield QNH) was 1,018 hPa (30.06 inHg).
Other remarks WHT TEMPO FEW020 BLU.

UK Mainland

Ireland

Channel Islands

France

Other



Enter
Tel: 07092 887559 - Fax: 07092 183262

Terms of Use | Privacy Statement
Content copyright © 1999-2012 TheHangar.co.uk. All rights reserved.
Please send your questions, comments, or bug reports to the Webmaster.